sensor_id;sensor_type;location;lat;lon;timestamp;pressure;altitude;pressure_sealevel;temperature;humidity
32789;BME280;19141;48.980;8.410;2022-12-18T05:22:33;101523.97;;;-8.64;100.00
32789;BME280;19141;48.980;8.410;2022-12-18T05:24:59;101523.06;;;-8.61;100.00
32789;BME280;19141;48.980;8.410;2022-12-18T05:27:24;101529.91;;;-8.56;100.00
32789;BME280;19141;48.980;8.410;2022-12-18T05:29:50;101525.50;;;-8.48;100.00
32789;BME280;19141;48.980;8.410;2022-12-18T05:32:15;101520.22;;;-8.41;100.00
32789;BME280;19141;48.980;8.410;2022-12-18T05:34:40;101514.19;;;-8.40;100.00
32789;BME280;19141;48.980;8.410;2022-12-18T05:37:06;101533.00;;;-8.32;100.00
32789;BME280;19141;48.980;8.410;2022-12-18T05:39:31;101523.47;;;-8.30;100.00
32789;BME280;19141;48.980;8.410;2022-12-18T05:41:56;101531.19;;;-8.27;100.00
32789;BME280;19141;48.980;8.410;2022-12-18T05:44:22;101526.00;;;-8.26;100.00
32789;BME280;19141;48.980;8.410;2022-12-18T05:46:47;101536.34;;;-8.26;100.00
32789;BME280;19141;48.980;8.410;2022-12-18T05:49:13;101523.41;;;-8.26;100.00
32789;BME280;19141;48.980;8.410;2022-12-18T05:51:38;101520.75;;;-8.21;100.00
32789;BME280;19141;48.980;8.410;2022-12-18T05:54:03;101516.44;;;-8.21;100.00
32789;BME280;19141;48.980;8.410;2022-12-18T05:56:29;101532.50;;;-8.00;100.00
32789;BME280;19141;48.980;8.410;2022-12-18T05:58:54;101528.19;;;-8.00;100.00
32789;BME280;19141;48.980;8.410;2022-12-18T06:01:23;101530.69;;;-7.95;100.00
32789;BME280;19141;48.980;8.410;2022-12-18T06:03:48;101541.00;;;-7.94;100.00
32789;BME280;19141;48.980;8.410;2022-12-18T06:06:23;101538.31;;;-7.89;100.00
32789;BME280;19141;48.980;8.410;2022-12-18T06:08:49;101545.22;;;-7.89;100.00
32789;BME280;19141;48.980;8.410;2022-12-18T06:11:34;101534.88;;;-7.89;100.00
32789;BME280;19141;48.980;8.410;2022-12-18T06:14:00;101545.13;;;-7.83;100.00
32789;BME280;19141;48.980;8.410;2022-12-18T06:16:27;101549.50;;;-7.85;100.00
32789;BME280;19141;48.980;8.410;2022-12-18T06:18:53;101546.88;;;-7.84;100.00
32789;BME280;19141;48.980;8.410;2022-12-18T06:21:18;101553.69;;;-7.78;100.00
32789;BME280;19141;48.980;8.410;2022-12-18T06:23:44;101551.13;;;-7.80;100.00
32789;BME280;19141;48.980;8.410;2022-12-18T06:26:12;101559.75;;;-7.79;100.00
32789;BME280;19141;48.980;8.410;2022-12-18T06:28:37;101570.84;;;-7.73;100.00
32789;BME280;19141;48.980;8.410;2022-12-18T06:31:03;101567.47;;;-7.78;100.00
32789;BME280;19141;48.980;8.410;2022-12-18T06:33:29;101575.97;;;-7.68;100.00
32789;BME280;19141;48.980;8.410;2022-12-18T06:36:07;101580.19;;;-7.64;100.00
32789;BME280;19141;48.980;8.410;2022-12-18T06:38:33;101579.25;;;-7.60;100.00
32789;BME280;19141;48.980;8.410;2022-12-18T06:40:59;101579.19;;;-7.57;100.00
32789;BME280;19141;48.980;8.410;2022-12-18T06:43:25;101586.03;;;-7.53;100.00
32789;BME280;19141;48.980;8.410;2022-12-18T06:45:50;101588.69;;;-7.57;100.00
32789;BME280;19141;48.980;8.410;2022-12-18T06:48:21;101593.81;;;-7.53;100.00
32789;BME280;19141;48.980;8.410;2022-12-18T06:50:47;101587.75;;;-7.52;100.00
32789;BME280;19141;48.980;8.410;2022-12-18T06:53:12;101592.88;;;-7.49;100.00
32789;BME280;19141;48.980;8.410;2022-12-18T06:55:37;101589.41;;;-7.48;100.00
32789;BME280;19141;48.980;8.410;2022-12-18T06:58:03;101585.97;;;-7.48;100.00
32789;BME280;19141;48.980;8.410;2022-12-18T07:00:28;101592.78;;;-7.44;100.00
32789;BME280;19141;48.980;8.410;2022-12-18T07:02:54;101593.63;;;-7.42;100.00
32789;BME280;19141;48.980;8.410;2022-12-18T07:05:19;101595.25;;;-7.38;100.00
32789;BME280;19141;48.980;8.410;2022-12-18T07:07:44;101594.34;;;-7.34;100.00
32789;BME280;19141;48.980;8.410;2022-12-18T07:10:10;101594.38;;;-7.35;100.00
32789;BME280;19141;48.980;8.410;2022-12-18T07:12:35;101593.50;;;-7.34;100.00
32789;BME280;19141;48.980;8.410;2022-12-18T07:15:01;101591.81;;;-7.39;100.00
32789;BME280;19141;48.980;8.410;2022-12-18T07:17:27;101596.00;;;-7.31;100.00
32789;BME280;19141;48.980;8.410;2022-12-18T07:19:52;101597.59;;;-7.24;100.00
32789;BME280;19141;48.980;8.410;2022-12-18T07:22:18;101595.13;;;-7.29;100.00
32789;BME280;19141;48.980;8.410;2022-12-18T07:24:43;101598.59;;;-7.30;100.00
32789;BME280;19141;48.980;8.410;2022-12-18T07:27:08;101595.97;;;-7.28;100.00
32789;BME280;19141;48.980;8.410;2022-12-18T07:29:34;101603.78;;;-7.31;100.00
32789;BME280;19141;48.980;8.410;2022-12-18T07:31:59;101603.75;;;-7.28;100.00
32789;BME280;19141;48.980;8.410;2022-12-18T07:34:24;101604.63;;;-7.29;100.00
32789;BME280;19141;48.980;8.410;2022-12-18T07:36:50;101612.47;;;-7.34;100.00
32789;BME280;19141;48.980;8.410;2022-12-18T07:39:15;101616.69;;;-7.28;100.00
32789;BME280;19141;48.980;8.410;2022-12-18T07:41:41;101605.47;;;-7.29;100.00
32789;BME280;19141;48.980;8.410;2022-12-18T07:44:29;101610.75;;;-7.35;100.00
32789;BME280;19141;48.980;8.410;2022-12-18T07:46:54;101620.16;;;-7.29;100.00
32789;BME280;19141;48.980;8.410;2022-12-18T07:49:20;101620.16;;;-7.29;100.00
32789;BME280;19141;48.980;8.410;2022-12-18T07:51:45;101626.13;;;-7.26;100.00
32789;BME280;19141;48.980;8.410;2022-12-18T07:54:14;101624.38;;;-7.25;100.00
32789;BME280;19141;48.980;8.410;2022-12-18T07:56:39;101631.28;;;-7.23;100.00
32789;BME280;19141;48.980;8.410;2022-12-18T07:59:05;101642.38;;;-7.16;100.00
32789;BME280;19141;48.980;8.410;2022-12-18T08:01:30;101643.25;;;-7.17;100.00
32789;BME280;19141;48.980;8.410;2022-12-18T08:03:57;101636.44;;;-7.24;100.00
32789;BME280;19141;48.980;8.410;2022-12-18T08:06:22;101646.00;;;-7.26;100.00
32789;BME280;19141;48.980;8.410;2022-12-18T08:08:48;101653.66;;;-7.20;100.00
32789;BME280;19141;48.980;8.410;2022-12-18T08:11:13;101649.28;;;-7.18;100.00
32789;BME280;19141;48.980;8.410;2022-12-18T08:13:38;101644.97;;;-7.18;100.00
32789;BME280;19141;48.980;8.410;2022-12-18T08:16:06;101642.47;;;-7.22;100.00
32789;BME280;19141;48.980;8.410;2022-12-18T08:18:33;101642.47;;;-7.22;100.00
32789;BME280;19141;48.980;8.410;2022-12-18T08:21:14;101643.38;;;-7.25;100.00
32789;BME280;19141;48.980;8.410;2022-12-18T08:23:40;101650.13;;;-7.15;100.00
32789;BME280;19141;48.980;8.410;2022-12-18T08:26:06;101653.56;;;-7.14;100.00
32789;BME280;19141;48.980;8.410;2022-12-18T08:28:32;101638.84;;;-7.12;100.00
32789;BME280;19141;48.980;8.410;2022-12-18T08:30:58;101637.06;;;-7.08;100.00
32789;BME280;19141;48.980;8.410;2022-12-18T08:33:23;101640.50;;;-7.08;100.00
32789;BME280;19141;48.980;8.410;2022-12-18T08:35:48;101633.41;;;-6.97;100.00
32789;BME280;19141;48.980;8.410;2022-12-18T08:38:14;101630.91;;;-7.03;100.00
32789;BME280;19141;48.980;8.410;2022-12-18T08:40:39;101616.38;;;-7.12;100.00
32789;BME280;19141;48.980;8.410;2022-12-18T08:43:05;101616.25;;;-7.05;100.00
32789;BME280;19141;48.980;8.410;2022-12-18T08:45:49;101622.09;;;-6.94;100.00
32789;BME280;19141;48.980;8.410;2022-12-18T08:48:15;101614.75;;;-7.16;100.00
32789;BME280;19141;48.980;8.410;2022-12-18T08:50:40;101599.34;;;-7.25;100.00
32789;BME280;19141;48.980;8.410;2022-12-18T08:53:06;101607.72;;;-7.09;100.00
32789;BME280;19141;48.980;8.410;2022-12-18T08:55:31;101608.34;;;-6.98;100.00
32789;BME280;19141;48.980;8.410;2022-12-18T08:57:57;101602.34;;;-7.00;100.00
32789;BME280;19141;48.980;8.410;2022-12-18T09:00:22;101603.94;;;-6.93;100.00
32789;BME280;19141;48.980;8.410;2022-12-18T09:02:48;101599.81;;;-7.03;100.00
32789;BME280;19141;48.980;8.410;2022-12-18T09:05:13;101592.06;;;-7.04;100.00
32789;BME280;19141;48.980;8.410;2022-12-18T09:07:38;101590.19;;;-6.98;100.00
32789;BME280;19141;48.980;8.410;2022-12-18T09:10:04;101577.31;;;-7.01;100.00
32789;BME280;19141;48.980;8.410;2022-12-18T09:12:30;101590.28;;;-7.01;100.00
32789;BME280;19141;48.980;8.410;2022-12-18T09:14:55;101587.81;;;-7.07;100.00
32789;BME280;19141;48.980;8.410;2022-12-18T09:17:22;101602.34;;;-7.00;100.00
32789;BME280;19141;48.980;8.410;2022-12-18T09:19:47;101605.91;;;-7.04;100.00
32789;BME280;19141;48.980;8.410;2022-12-18T09:22:12;101618.06;;;-7.09;100.00
32789;BME280;19141;48.980;8.410;2022-12-18T09:24:38;101609.44;;;-7.11;100.00
32789;BME280;19141;48.980;8.410;2022-12-18T09:27:03;101609.25;;;-7.00;100.00
32789;BME280;19141;48.980;8.410;2022-12-18T09:29:29;101617.72;;;-6.91;100.00
32789;BME280;19141;48.980;8.410;2022-12-18T09:31:54;101626.09;;;-6.76;100.00
32789;BME280;19141;48.980;8.410;2022-12-18T09:34:19;101630.22;;;-6.68;100.00
32789;BME280;19141;48.980;8.410;2022-12-18T09:36:46;101630.06;;;-6.60;100.00
32789;BME280;19141;48.980;8.410;2022-12-18T09:39:12;101649.91;;;-6.58;100.00
32789;BME280;19141;48.980;8.410;2022-12-18T09:41:46;101649.09;;;-6.61;100.00
32789;BME280;19141;48.980;8.410;2022-12-18T09:44:19;101639.44;;;-6.53;100.00
32789;BME280;19141;48.980;8.410;2022-12-18T09:46:52;101640.06;;;-6.42;100.00
32789;BME280;19141;48.980;8.410;2022-12-18T09:49:29;101634.94;;;-6.43;100.00
32789;BME280;19141;48.980;8.410;2022-12-18T09:51:57;101629.44;;;-6.30;100.00
32789;BME280;19141;48.980;8.410;2022-12-18T09:54:32;101644.78;;;-6.19;100.00
32789;BME280;19141;48.980;8.410;2022-12-18T09:56:58;101647.25;;;-6.13;100.00
32789;BME280;19141;48.980;8.410;2022-12-18T09:59:29;101649.91;;;-6.16;100.00
32789;BME280;19141;48.980;8.410;2022-12-18T10:01:57;101647.09;;;-6.05;100.00
32789;BME280;19141;48.980;8.410;2022-12-18T10:04:23;101662.06;;;-6.18;100.00
32789;BME280;19141;48.980;8.410;2022-12-18T10:07:06;101662.91;;;-6.17;100.00
32789;BME280;19141;48.980;8.410;2022-12-18T10:09:51;101662.81;;;-6.13;100.00
32789;BME280;19141;48.980;8.410;2022-12-18T10:13:12;101668.00;;;-6.13;100.00
32789;BME280;19141;48.980;8.410;2022-12-18T10:15:51;101671.47;;;-6.12;100.00
32789;BME280;19141;48.980;8.410;2022-12-18T10:20:51;101660.00;;;-6.04;100.00
32789;BME280;19141;48.980;8.410;2022-12-18T10:23:43;101659.34;;;-6.13;100.00
32789;BME280;19141;48.980;8.410;2022-12-18T10:26:11;101648.38;;;-6.24;100.00
32789;BME280;19141;48.980;8.410;2022-12-18T10:28:39;101640.00;;;-6.37;100.00
32789;BME280;19141;48.980;8.410;2022-12-18T10:31:14;101639.91;;;-6.34;100.00
32789;BME280;19141;48.980;8.410;2022-12-18T10:33:42;101623.63;;;-6.41;100.00
32789;BME280;19141;48.980;8.410;2022-12-18T10:36:07;101621.91;;;-6.42;100.00
32789;BME280;19141;48.980;8.410;2022-12-18T10:38:33;101639.13;;;-6.38;100.00
32789;BME280;19141;48.980;8.410;2022-12-18T10:41:01;101637.94;;;-6.23;100.00
32789;BME280;19141;48.980;8.410;2022-12-18T10:43:29;101638.59;;;-6.13;100.00
32789;BME280;19141;48.980;8.410;2022-12-18T10:51:05;101641.06;;;-6.07;100.00
32789;BME280;19141;48.980;8.410;2022-12-18T10:53:33;101615.81;;;-5.99;100.00
32789;BME280;19141;48.980;8.410;2022-12-18T10:55:59;101629.91;;;-6.11;100.00
32789;BME280;19141;48.980;8.410;2022-12-18T10:58:25;101627.44;;;-6.17;100.00
32789;BME280;19141;48.980;8.410;2022-12-18T11:08:30;101632.69;;;-6.20;100.00
32789;BME280;19141;48.980;8.410;2022-12-18T11:10:55;101641.81;;;-6.02;100.00
32789;BME280;19141;48.980;8.410;2022-12-18T11:13:22;101635.69;;;-5.98;100.00
32789;BME280;19141;48.980;8.410;2022-12-18T11:15:49;101635.28;;;-5.83;100.00
32789;BME280;19141;48.980;8.410;2022-12-18T11:20:57;101642.28;;;-5.49;100.00
32789;BME280;19141;48.980;8.410;2022-12-18T11:23:24;101628.94;;;-5.35;100.00
32789;BME280;19141;48.980;8.410;2022-12-18T11:25:52;101628.94;;;-5.34;100.00
32789;BME280;19141;48.980;8.410;2022-12-18T11:28:46;101621.53;;;-4.84;100.00
32789;BME280;19141;48.980;8.410;2022-12-18T11:33:42;101620.78;;;-4.56;100.00
32789;BME280;19141;48.980;8.410;2022-12-18T11:36:10;101616.47;;;-4.28;100.00
32789;BME280;19141;48.980;8.410;2022-12-18T11:38:42;101613.31;;;-3.82;97.28
32789;BME280;19141;48.980;8.410;2022-12-18T11:41:27;101605.16;;;-3.71;96.20
32789;BME280;19141;48.980;8.410;2022-12-18T11:44:19;101600.53;;;-3.36;93.28
32789;BME280;19141;48.980;8.410;2022-12-18T11:46:52;101601.63;;;-3.17;91.12
32789;BME280;19141;48.980;8.410;2022-12-18T11:49:27;101607.03;;;-2.73;90.40
32789;BME280;19141;48.980;8.410;2022-12-18T11:52:14;101602.53;;;-2.69;87.78
32789;BME280;19141;48.980;8.410;2022-12-18T11:54:41;101589.81;;;-2.54;86.46
32789;BME280;19141;48.980;8.410;2022-12-18T11:59:58;101576.25;;;-2.18;88.71
32789;BME280;19141;48.980;8.410;2022-12-18T12:02:40;101568.03;;;-2.31;85.64
32789;BME280;19141;48.980;8.410;2022-12-18T12:07:38;101580.09;;;-2.50;87.12
32789;BME280;19141;48.980;8.410;2022-12-18T12:10:24;101565.28;;;-2.50;86.04
32789;BME280;19141;48.980;8.410;2022-12-18T12:13:00;101559.44;;;-2.56;85.67
32789;BME280;19141;48.980;8.410;2022-12-18T12:21:17;101545.59;;;-3.05;89.74
32789;BME280;19141;48.980;8.410;2022-12-18T12:32:14;101566.19;;;-2.51;91.52
32789;BME280;19141;48.980;8.410;2022-12-18T12:37:34;101573.84;;;-3.18;90.34
32789;BME280;19141;48.980;8.410;2022-12-18T12:40:02;101581.03;;;-2.99;93.25
32789;BME280;19141;48.980;8.410;2022-12-18T12:42:35;101574.59;;;-2.66;91.90
32789;BME280;19141;48.980;8.410;2022-12-18T12:45:30;101564.13;;;-2.42;90.26
32789;BME280;19141;48.980;8.410;2022-12-18T12:47:59;101570.28;;;-2.67;89.64
32789;BME280;19141;48.980;8.410;2022-12-18T12:50:27;101563.97;;;-2.85;89.73
32789;BME280;19141;48.980;8.410;2022-12-18T12:52:55;101571.75;;;-2.83;91.10
32789;BME280;19141;48.980;8.410;2022-12-18T12:55:25;101569.47;;;-2.69;91.10
32789;BME280;19141;48.980;8.410;2022-12-18T12:58:26;101565.59;;;-3.06;94.69
32789;BME280;19141;48.980;8.410;2022-12-18T13:09:03;101523.72;;;-2.54;89.86
32789;BME280;19141;48.980;8.410;2022-12-18T13:14:28;101524.56;;;-3.01;93.73
32789;BME280;19141;48.980;8.410;2022-12-18T13:17:29;101522.94;;;-3.28;95.09
32789;BME280;19141;48.980;8.410;2022-12-18T13:22:37;101508.19;;;-3.04;94.44
32789;BME280;19141;48.980;8.410;2022-12-18T13:28:01;101502.91;;;-3.03;94.17
32789;BME280;19141;48.980;8.410;2022-12-18T13:35:40;101481.09;;;-3.23;95.85
32789;BME280;19141;48.980;8.410;2022-12-18T13:40:54;101483.16;;;-3.33;96.02
32789;BME280;19141;48.980;8.410;2022-12-18T13:46:17;101464.00;;;-3.56;98.29
32789;BME280;19141;48.980;8.410;2022-12-18T13:51:39;101469.56;;;-3.41;99.52
32789;BME280;19141;48.980;8.410;2022-12-18T13:54:19;101471.03;;;-3.34;98.87
32789;BME280;19141;48.980;8.410;2022-12-18T13:56:46;101477.28;;;-3.38;99.60
32789;BME280;19141;48.980;8.410;2022-12-18T14:04:30;101471.69;;;-3.52;100.00
32789;BME280;19141;48.980;8.410;2022-12-18T14:07:04;101473.22;;;-3.47;100.00
32789;BME280;19141;48.980;8.410;2022-12-18T14:09:35;101457.59;;;-3.47;99.87
32789;BME280;19141;48.980;8.410;2022-12-18T14:12:01;101467.06;;;-3.44;100.00
32789;BME280;19141;48.980;8.410;2022-12-18T14:14:51;101466.44;;;-3.26;100.00
32789;BME280;19141;48.980;8.410;2022-12-18T14:17:17;101474.72;;;-3.40;100.00
32789;BME280;19141;48.980;8.410;2022-12-18T14:19:47;101459.13;;;-3.41;100.00
32789;BME280;19141;48.980;8.410;2022-12-18T14:22:17;101465.84;;;-3.59;100.00
32789;BME280;19141;48.980;8.410;2022-12-18T14:24:44;101472.31;;;-3.46;100.00
32789;BME280;19141;48.980;8.410;2022-12-18T14:27:20;101476.81;;;-3.49;100.00
32789;BME280;19141;48.980;8.410;2022-12-18T14:29:46;101463.03;;;-3.53;100.00
32789;BME280;19141;48.980;8.410;2022-12-18T14:32:17;101465.31;;;-3.44;100.00
32789;BME280;19141;48.980;8.410;2022-12-18T14:34:48;101472.59;;;-3.53;100.00
32789;BME280;19141;48.980;8.410;2022-12-18T14:37:25;101473.50;;;-3.55;100.00
32789;BME280;19141;48.980;8.410;2022-12-18T14:39:56;101475.19;;;-3.53;100.00
32789;BME280;19141;48.980;8.410;2022-12-18T14:42:23;101472.50;;;-3.50;100.00
32789;BME280;19141;48.980;8.410;2022-12-18T14:47:57;101464.56;;;-3.47;100.00
32789;BME280;19141;48.980;8.410;2022-12-18T14:50:22;101469.03;;;-3.51;100.00
32789;BME280;19141;48.980;8.410;2022-12-18T14:52:48;101471.81;;;-3.56;100.00
32789;BME280;19141;48.980;8.410;2022-12-18T14:55:18;101471.25;;;-3.65;100.00
32789;BME280;19141;48.980;8.410;2022-12-18T14:57:45;101463.41;;;-3.64;100.00
32789;BME280;19141;48.980;8.410;2022-12-18T15:00:17;101458.50;;;-3.73;100.00
32789;BME280;19141;48.980;8.410;2022-12-18T15:02:46;101460.19;;;-3.72;100.00
32789;BME280;19141;48.980;8.410;2022-12-18T15:07:58;101461.25;;;-4.02;100.00
32789;BME280;19141;48.980;8.410;2022-12-18T15:10:27;101456.63;;;-3.94;100.00
32789;BME280;19141;48.980;8.410;2022-12-18T15:20:43;101458.09;;;-4.12;100.00
32789;BME280;19141;48.980;8.410;2022-12-18T15:23:17;101461.41;;;-4.07;100.00
32789;BME280;19141;48.980;8.410;2022-12-18T15:25:43;101457.09;;;-4.08;100.00
32789;BME280;19141;48.980;8.410;2022-12-18T15:28:35;101458.16;;;-4.14;100.00
32789;BME280;19141;48.980;8.410;2022-12-18T15:36:21;101449.56;;;-4.16;100.00
32789;BME280;19141;48.980;8.410;2022-12-18T15:38:48;101449.75;;;-4.22;100.00
32789;BME280;19141;48.980;8.410;2022-12-18T15:41:16;101454.16;;;-4.24;100.00
32789;BME280;19141;48.980;8.410;2022-12-18T15:43:42;101461.09;;;-4.24;100.00
32789;BME280;19141;48.980;8.410;2022-12-18T15:46:14;101456.00;;;-4.27;100.00
32789;BME280;19141;48.980;8.410;2022-12-18T15:48:45;101444.81;;;-4.29;100.00
32789;BME280;19141;48.980;8.410;2022-12-18T15:51:23;101440.59;;;-4.33;100.00
32789;BME280;19141;48.980;8.410;2022-12-18T15:53:53;101456.19;;;-4.33;100.00
32789;BME280;19141;48.980;8.410;2022-12-18T15:56:19;101452.81;;;-4.35;100.00
32789;BME280;19141;48.980;8.410;2022-12-18T15:59:09;101464.06;;;-4.35;100.00
32789;BME280;19141;48.980;8.410;2022-12-18T16:01:36;101445.97;;;-4.40;100.00
32789;BME280;19141;48.980;8.410;2022-12-18T16:04:01;101448.59;;;-4.40;100.00
32789;BME280;19141;48.980;8.410;2022-12-18T16:06:26;101460.59;;;-4.35;100.00
32789;BME280;19141;48.980;8.410;2022-12-18T16:08:52;101456.31;;;-4.37;100.00
32789;BME280;19141;48.980;8.410;2022-12-18T16:11:23;101458.09;;;-4.39;100.00
32789;BME280;19141;48.980;8.410;2022-12-18T16:14:23;101462.34;;;-4.36;100.00
32789;BME280;19141;48.980;8.410;2022-12-18T16:16:56;101459.94;;;-4.42;100.00
32789;BME280;19141;48.980;8.410;2022-12-18T16:19:23;101449.50;;;-4.41;100.00
32789;BME280;19141;48.980;8.410;2022-12-18T16:21:50;101456.50;;;-4.43;100.00
32789;BME280;19141;48.980;8.410;2022-12-18T16:24:20;101453.06;;;-4.45;100.00
32789;BME280;19141;48.980;8.410;2022-12-18T16:26:50;101456.56;;;-4.46;100.00
32789;BME280;19141;48.980;8.410;2022-12-18T16:29:17;101456.34;;;-4.38;100.00
32789;BME280;19141;48.980;8.410;2022-12-18T16:31:42;101446.13;;;-4.44;100.00
32789;BME280;19141;48.980;8.410;2022-12-18T16:34:20;101455.00;;;-4.50;100.00
32789;BME280;19141;48.980;8.410;2022-12-18T16:36:51;101442.00;;;-4.51;100.00
32789;BME280;19141;48.980;8.410;2022-12-18T16:39:20;101443.72;;;-4.50;100.00
32789;BME280;19141;48.980;8.410;2022-12-18T16:41:46;101428.09;;;-4.50;100.00
32789;BME280;19141;48.980;8.410;2022-12-18T16:44:12;101442.00;;;-4.51;100.00
32789;BME280;19141;48.980;8.410;2022-12-18T16:46:39;101444.78;;;-4.56;100.00
32789;BME280;19141;48.980;8.410;2022-12-18T16:49:08;101450.72;;;-4.52;100.00
32789;BME280;19141;48.980;8.410;2022-12-18T16:51:34;101443.09;;;-4.58;100.00
32789;BME280;19141;48.980;8.410;2022-12-18T16:53:59;101443.94;;;-4.56;100.00
32789;BME280;19141;48.980;8.410;2022-12-18T16:56:25;101439.78;;;-4.62;100.00
32789;BME280;19141;48.980;8.410;2022-12-18T16:58:52;101444.97;;;-4.62;100.00
32789;BME280;19141;48.980;8.410;2022-12-18T17:01:18;101446.09;;;-4.71;100.00
32789;BME280;19141;48.980;8.410;2022-12-18T17:03:44;101439.09;;;-4.69;100.00
32789;BME280;19141;48.980;8.410;2022-12-18T17:06:09;101441.72;;;-4.69;100.00
32789;BME280;19141;48.980;8.410;2022-12-18T17:08:35;101433.78;;;-4.66;100.00
32789;BME280;19141;48.980;8.410;2022-12-18T17:11:05;101438.38;;;-4.74;100.00
32789;BME280;19141;48.980;8.410;2022-12-18T17:13:31;101430.72;;;-4.78;100.00
32789;BME280;19141;48.980;8.410;2022-12-18T17:16:02;101430.06;;;-4.85;100.00
32789;BME280;19141;48.980;8.410;2022-12-18T17:18:27;101428.97;;;-4.78;100.00
32789;BME280;19141;48.980;8.410;2022-12-18T17:20:58;101430.91;;;-4.84;100.00
32789;BME280;19141;48.980;8.410;2022-12-18T17:23:23;101431.06;;;-4.89;100.00
32789;BME280;19141;48.980;8.410;2022-12-18T17:25:48;101430.19;;;-4.89;100.00
32789;BME280;19141;48.980;8.410;2022-12-18T17:28:14;101437.28;;;-4.95;100.00
32789;BME280;19141;48.980;8.410;2022-12-18T17:33:08;101436.47;;;-4.97;100.00
32789;BME280;19141;48.980;8.410;2022-12-18T17:35:34;101434.91;;;-5.02;100.00
32789;BME280;19141;48.980;8.410;2022-12-18T17:37:59;101427.81;;;-4.97;100.00
32789;BME280;19141;48.980;8.410;2022-12-18T17:40:24;101438.31;;;-5.00;100.00
32789;BME280;19141;48.980;8.410;2022-12-18T17:42:51;101432.22;;;-4.99;100.00
32789;BME280;19141;48.980;8.410;2022-12-18T17:45:17;101443.25;;;-4.91;100.00
32789;BME280;19141;48.980;8.410;2022-12-18T17:47:42;101441.66;;;-4.95;100.00
32789;BME280;19141;48.980;8.410;2022-12-18T17:50:08;101427.09;;;-5.01;100.00
32789;BME280;19141;48.980;8.410;2022-12-18T17:52:33;101435.50;;;-4.93;100.00
32789;BME280;19141;48.980;8.410;2022-12-18T17:55:00;101424.44;;;-4.99;100.00
32789;BME280;19141;48.980;8.410;2022-12-18T17:57:25;101429.53;;;-4.96;100.00
32789;BME280;19141;48.980;8.410;2022-12-18T17:59:51;101420.97;;;-5.00;100.00
32789;BME280;19141;48.980;8.410;2022-12-18T18:02:16;101426.91;;;-4.95;100.00
32789;BME280;19141;48.980;8.410;2022-12-18T18:04:41;101433.88;;;-4.97;100.00
32789;BME280;19141;48.980;8.410;2022-12-18T18:07:07;101432.03;;;-4.93;100.00
32789;BME280;19141;48.980;8.410;2022-12-18T18:09:32;101420.94;;;-4.98;100.00
32789;BME280;19141;48.980;8.410;2022-12-18T18:11:58;101427.81;;;-4.97;100.00
32789;BME280;19141;48.980;8.410;2022-12-18T18:14:42;101427.78;;;-4.96;100.00
32789;BME280;19141;48.980;8.410;2022-12-18T18:17:07;101445.09;;;-4.95;100.00
32789;BME280;19141;48.980;8.410;2022-12-18T18:19:33;101439.03;;;-4.95;100.00
32789;BME280;19141;48.980;8.410;2022-12-18T18:21:58;101446.91;;;-4.98;100.00
32789;BME280;19141;48.980;8.410;2022-12-18T18:24:24;101442.44;;;-4.93;100.00
32789;BME280;19141;48.980;8.410;2022-12-18T18:26:50;101433.84;;;-4.95;100.00
32789;BME280;19141;48.980;8.410;2022-12-18T18:29:18;101437.47;;;-5.01;100.00
32789;BME280;19141;48.980;8.410;2022-12-18T18:31:43;101437.72;;;-5.10;100.00
32789;BME280;19141;48.980;8.410;2022-12-18T18:34:23;101440.09;;;-5.02;100.00
32789;BME280;19141;48.980;8.410;2022-12-18T18:36:49;101434.06;;;-5.03;100.00
32789;BME280;19141;48.980;8.410;2022-12-18T18:39:14;101427.81;;;-4.97;100.00
32789;BME280;19141;48.980;8.410;2022-12-18T18:41:40;101420.94;;;-4.98;100.00
32789;BME280;19141;48.980;8.410;2022-12-18T18:44:05;101408.91;;;-5.02;100.00
32789;BME280;19141;48.980;8.410;2022-12-18T18:46:31;101400.25;;;-5.01;100.00
32789;BME280;19141;48.980;8.410;2022-12-18T18:48:57;101398.34;;;-4.96;100.00
32789;BME280;19141;48.980;8.410;2022-12-18T18:51:23;101396.63;;;-4.97;100.00
32789;BME280;19141;48.980;8.410;2022-12-18T18:53:50;101388.91;;;-4.99;100.00
32789;BME280;19141;48.980;8.410;2022-12-18T18:56:19;101390.59;;;-4.98;100.00
32789;BME280;19141;48.980;8.410;2022-12-18T18:58:45;101393.97;;;-4.96;100.00
32789;BME280;19141;48.980;8.410;2022-12-18T19:03:37;101382.72;;;-4.95;100.00
32789;BME280;19141;48.980;8.410;2022-12-18T19:06:05;101385.31;;;-4.95;100.00
32789;BME280;19141;48.980;8.410;2022-12-18T19:08:33;101372.31;;;-4.95;100.00
32789;BME280;19141;48.980;8.410;2022-12-18T19:11:00;101369.66;;;-4.93;100.00
32789;BME280;19141;48.980;8.410;2022-12-18T19:13:29;101374.16;;;-4.98;100.00
32789;BME280;19141;48.980;8.410;2022-12-18T19:16:08;101373.00;;;-4.89;100.00
32789;BME280;19141;48.980;8.410;2022-12-18T19:18:33;101368.91;;;-4.97;100.00
32789;BME280;19141;48.980;8.410;2022-12-18T19:21:04;101367.16;;;-4.96;100.00
32789;BME280;19141;48.980;8.410;2022-12-18T19:23:31;101364.59;;;-4.98;100.00
32789;BME280;19141;48.980;8.410;2022-12-18T19:26:00;101364.47;;;-4.93;100.00
32789;BME280;19141;48.980;8.410;2022-12-18T19:28:26;101348.34;;;-5.04;100.00
32789;BME280;19141;48.980;8.410;2022-12-18T19:30:54;101360.16;;;-4.94;100.00
32789;BME280;19141;48.980;8.410;2022-12-18T19:33:21;101349.78;;;-4.94;100.00
32789;BME280;19141;48.980;8.410;2022-12-18T19:35:46;101356.63;;;-4.92;100.00
32789;BME280;19141;48.980;8.410;2022-12-18T19:38:12;101365.19;;;-4.88;100.00
32789;BME280;19141;48.980;8.410;2022-12-18T19:40:42;101374.09;;;-4.97;100.00
32789;BME280;19141;48.980;8.410;2022-12-18T19:43:08;101363.69;;;-4.97;100.00
32789;BME280;19141;48.980;8.410;2022-12-18T19:45:34;101361.75;;;-4.90;100.00
32789;BME280;19141;48.980;8.410;2022-12-18T19:47:59;101359.94;;;-4.86;100.00
32789;BME280;19141;48.980;8.410;2022-12-18T19:50:25;101361.56;;;-4.84;100.00
32789;BME280;19141;48.980;8.410;2022-12-18T19:52:50;101352.13;;;-4.86;100.00